Time;durP1;ratioP1;P1;durP2;ratioP2;P2;SDS_P1;SDS_P2;PMS_P1;PMS_P2;Temp;Humidity;BMP_temperature;BMP_pressure;BME280_temperature;BME280_humidity;BME280_pressure;Samples;Min_cycle;Max_cycle;Signal;HPM_P1;HPM_P2
2023/07/27 00:01:07;;;;;;;;;2.00;2.00;;;;;22.68;57.90;100666.16;5000752;28;45287;-68
2023/07/27 00:03:33;;;;;;;;;2.00;2.00;;;;;22.69;58.16;100669.75;4989397;28;45530;-68
2023/07/27 00:05:58;;;;;;;;;2.00;1.25;;;;;22.44;58.38;100631.03;5018676;28;45560;-68
2023/07/27 00:08:23;;;;;;;;;3.50;0.50;;;;;22.66;58.48;100662.69;5001708;28;46907;-69
2023/07/27 00:10:48;;;;;;;;;2.00;1.00;;;;;22.55;58.47;100630.09;5019436;28;45461;-68
2023/07/27 00:13:14;;;;;;;;;2.75;1.00;;;;;22.63;58.86;100651.22;5019246;28;45398;-68
2023/07/27 00:15:39;;;;;;;;;1.75;1.25;;;;;22.56;59.17;100646.28;5019410;28;45549;-68
2023/07/27 00:18:05;;;;;;;;;1.50;1.50;;;;;22.64;59.09;100666.56;5019299;28;46492;-68
2023/07/27 00:20:30;;;;;;;;;2.00;1.00;;;;;22.45;59.10;100632.72;5019166;28;45344;-68
2023/07/27 00:22:55;;;;;;;;;1.00;1.00;;;;;22.43;59.51;100626.56;5019308;28;45625;-68
2023/07/27 00:25:21;;;;;;;;;1.00;1.00;;;;;22.35;59.45;100616.34;5019249;28;45372;-68
2023/07/27 00:27:46;;;;;;;;;2.25;1.25;;;;;22.38;59.92;100626.94;5001219;28;46044;-68
2023/07/27 00:30:12;;;;;;;;;1.00;1.00;;;;;22.35;60.16;100618.19;5014211;28;45718;-68
2023/07/27 00:32:38;;;;;;;;;1.50;1.00;;;;;22.40;60.34;100618.66;4999206;28;45408;-68
2023/07/27 00:35:05;;;;;;;;;1.00;1.00;;;;;22.48;60.37;100621.59;4999157;28;47108;-68
2023/07/27 00:37:30;;;;;;;;;1.50;1.50;;;;;22.55;61.01;100636.41;4999220;28;47551;-68
2023/07/27 00:39:56;;;;;;;;;2.00;1.25;;;;;22.52;61.25;100627.63;4999151;28;45455;-68
2023/07/27 00:42:21;;;;;;;;;1.75;1.75;;;;;22.47;61.23;100614.44;4999091;28;45317;-68
2023/07/27 00:44:47;;;;;;;;;1.00;1.00;;;;;22.52;61.12;100625.81;4981352;28;45337;-68
2023/07/27 00:47:12;;;;;;;;;0.00;0.00;;;;;22.44;61.53;100598.38;4999076;28;45432;-68
2023/07/27 00:49:37;;;;;;;;;2.00;2.00;;;;;22.29;61.91;100589.66;4999133;28;45324;-68
2023/07/27 00:52:07;;;;;;;;;0.25;0.25;;;;;22.51;61.52;100629.50;4999334;28;45379;-68
2023/07/27 00:54:35;;;;;;;;;0.00;0.00;;;;;22.46;61.55;100615.44;4999166;28;46139;-68
2023/07/27 00:57:01;;;;;;;;;1.75;1.75;;;;;22.48;61.64;100616.16;4998916;28;45505;-68
2023/07/27 00:59:28;;;;;;;;;3.00;1.25;;;;;22.54;61.43;100615.66;4998997;28;45334;-69
2023/07/27 01:01:53;;;;;;;;;2.50;1.00;;;;;22.49;62.15;100608.88;5006275;28;45545;-68
2023/07/27 01:04:19;;;;;;;;;1.00;1.00;;;;;22.53;61.90;100608.47;5000189;28;45440;-68
2023/07/27 01:06:45;;;;;;;;;1.00;1.00;;;;;22.53;62.24;100608.47;4999007;28;46191;-68
2023/07/27 01:09:10;;;;;;;;;0.25;0.25;;;;;22.36;62.38;100581.84;4997661;28;45748;-68
2023/07/27 01:11:56;;;;;;;;;0.25;0.25;;;;;22.56;62.16;100607.34;4998899;28;45384;-68
2023/07/27 01:14:59;;;;;;;;;1.50;1.00;;;;;22.52;61.65;100604.03;4999008;28;45578;-68
2023/07/27 01:17:37;;;;;;;;;1.00;1.00;;;;;22.41;61.82;100585.03;5002439;28;45456;-68
2023/07/27 01:20:22;;;;;;;;;1.00;1.00;;;;;22.55;62.36;100603.78;4998780;28;45625;-68
2023/07/27 01:23:18;;;;;;;;;1.50;1.50;;;;;22.54;62.64;100601.19;4981173;28;45924;-68
2023/07/27 01:26:00;;;;;;;;;1.75;1.75;;;;;22.56;62.75;100602.78;5006817;28;45596;-68
2023/07/27 01:28:45;;;;;;;;;1.00;1.00;;;;;22.53;62.56;100597.59;5018295;28;46369;-68
2023/07/27 01:31:19;;;;;;;;;2.00;1.50;;;;;22.47;62.79;100589.09;5017096;28;45537;-69
2023/07/27 01:33:48;;;;;;;;;1.25;1.25;;;;;22.37;63.18;100568.13;5018547;28;45557;-68
2023/07/27 01:36:21;;;;;;;;;1.00;1.00;;;;;22.19;63.31;100545.19;5006880;28;45329;-68
2023/07/27 01:38:48;;;;;;;;;1.75;1.75;;;;;22.34;62.44;100570.25;4998684;28;45642;-68
2023/07/27 01:41:15;;;;;;;;;1.75;1.75;;;;;22.39;62.51;100565.28;4998210;28;45385;-68
2023/07/27 01:43:43;;;;;;;;;0.50;0.50;;;;;22.45;62.83;100581.06;4999398;28;45431;-68
2023/07/27 01:46:10;;;;;;;;;1.25;1.25;;;;;22.43;62.85;100568.59;4984169;28;45972;-69
2023/07/27 01:48:39;;;;;;;;;0.75;0.75;;;;;22.50;62.77;100570.69;5000491;28;48337;-68
2023/07/27 01:51:06;;;;;;;;;1.00;1.00;;;;;22.46;62.96;100569.19;5001737;28;45491;-68
2023/07/27 01:53:33;;;;;;;;;1.00;1.00;;;;;22.33;62.60;100547.63;5002010;28;45438;-68
2023/07/27 01:56:00;;;;;;;;;1.00;1.00;;;;;22.37;62.74;100561.84;5001536;28;45673;-68
2023/07/27 01:58:26;;;;;;;;;2.25;1.25;;;;;22.27;63.17;100544.53;5001673;28;45412;-69
2023/07/27 02:00:55;;;;;;;;;1.00;1.00;;;;;22.26;62.81;100537.38;5001679;28;45443;-68
2023/07/27 02:03:20;;;;;;;;;1.00;1.00;;;;;22.36;62.98;100557.38;5000934;28;45451;-68
2023/07/27 02:05:46;;;;;;;;;1.00;1.00;;;;;22.37;62.77;100562.69;5001582;28;45295;-68
2023/07/27 02:08:11;;;;;;;;;1.00;1.00;;;;;22.40;62.92;100558.81;5001514;28;45373;-68
2023/07/27 02:10:39;;;;;;;;;0.25;0.25;;;;;22.32;62.71;100545.03;5001491;28;45372;-68
2023/07/27 02:13:10;;;;;;;;;0.00;0.00;;;;;22.22;62.87;100539.50;4983766;28;45455;-69
2023/07/27 02:15:42;;;;;;;;;0.50;0.50;;;;;22.39;62.99;100578.88;5001471;28;45271;-68
2023/07/27 02:18:14;;;;;;;;;0.50;0.50;;;;;22.15;62.81;100522.84;4983642;28;48163;-68
2023/07/27 02:20:41;;;;;;;;;0.75;0.00;;;;;22.27;62.73;100542.69;5001304;28;45450;-68
2023/07/27 02:23:07;;;;;;;;;0.00;0.00;;;;;22.35;62.76;100559.25;5001389;28;45525;-69
2023/07/27 02:25:33;;;;;;;;;1.00;0.25;;;;;22.24;63.05;100544.81;5001318;28;45481;-68
2023/07/27 02:27:58;;;;;;;;;0.25;0.25;;;;;22.29;63.09;100557.03;5001129;28;46243;-68
2023/07/27 02:30:24;;;;;;;;;0.00;0.00;;;;;22.28;62.74;100549.88;5014743;28;45313;-68
2023/07/27 02:32:49;;;;;;;;;2.50;0.00;;;;;22.12;63.30;100514.94;5003283;28;45305;-68
2023/07/27 02:35:14;;;;;;;;;0.00;0.00;;;;;22.08;63.24;100523.47;5017592;28;45438;-68
2023/07/27 02:37:40;;;;;;;;;0.00;0.00;;;;;22.27;62.69;100549.94;5001175;28;45263;-68
2023/07/27 02:40:07;;;;;;;;;0.00;0.00;;;;;22.19;63.39;100539.75;5001091;28;45313;-68
2023/07/27 02:42:32;;;;;;;;;1.00;1.00;;;;;22.06;63.19;100523.59;5000878;28;45604;-68
2023/07/27 02:44:58;;;;;;;;;0.75;0.75;;;;;22.07;63.03;100514.47;5000901;28;45524;-68
2023/07/27 02:47:23;;;;;;;;;0.00;0.00;;;;;21.98;63.12;100510.66;5000884;28;45357;-69
2023/07/27 02:49:48;;;;;;;;;2.00;2.00;;;;;22.17;63.15;100542.59;5000930;28;45692;-68
2023/07/27 02:52:14;;;;;;;;;0.00;0.00;;;;;22.17;63.60;100534.44;4983399;28;45380;-68
2023/07/27 02:54:39;;;;;;;;;0.50;0.50;;;;;22.02;63.63;100506.69;5000871;28;45468;-68
2023/07/27 02:57:04;;;;;;;;;0.00;0.00;;;;;22.19;63.24;100535.16;5000678;28;46460;-69
2023/07/27 02:59:30;;;;;;;;;1.00;1.00;;;;;22.10;63.46;100518.75;5000666;28;45348;-68
2023/07/27 03:01:55;;;;;;;;;1.00;1.00;;;;;22.01;63.71;100518.56;5008334;28;45435;-68
2023/07/27 03:04:20;;;;;;;;;0.00;0.00;;;;;22.00;63.91;100521.41;5001508;28;45401;-68
2023/07/27 03:06:46;;;;;;;;;0.50;0.50;;;;;22.00;63.68;100529.53;5000751;28;45435;-68
2023/07/27 03:09:11;;;;;;;;;0.00;0.00;;;;;22.07;63.65;100538.03;5000555;28;45362;-69
2023/07/27 03:11:37;;;;;;;;;1.00;0.25;;;;;22.07;63.70;100549.81;4982832;28;45602;-68
2023/07/27 03:14:03;;;;;;;;;0.00;0.00;;;;;22.01;63.79;100532.13;5000577;28;45479;-69
2023/07/27 03:16:28;;;;;;;;;0.00;0.00;;;;;21.94;63.53;100533.66;5000575;28;45484;-68
2023/07/27 03:18:54;;;;;;;;;1.00;1.00;;;;;21.90;63.87;100529.47;5000409;28;45326;-69
2023/07/27 03:21:19;;;;;;;;;0.00;0.00;;;;;22.06;63.94;100549.94;4999331;28;45339;-69
2023/07/27 03:23:44;;;;;;;;;0.00;0.00;;;;;22.06;63.42;100544.50;5000357;28;45382;-69
2023/07/27 03:26:11;;;;;;;;;0.00;0.00;;;;;22.01;63.97;100525.84;4982576;28;47251;-69
2023/07/27 03:28:37;;;;;;;;;0.00;0.00;;;;;21.88;64.16;100511.56;5001293;28;45289;-68
2023/07/27 03:31:02;;;;;;;;;0.00;0.00;;;;;21.86;64.35;100514.41;5008520;28;45402;-68
2023/07/27 03:33:27;;;;;;;;;1.00;1.00;;;;;21.84;63.85;100509.09;5000250;28;45437;-69
2023/07/27 03:35:53;;;;;;;;;0.00;0.00;;;;;22.07;64.54;100549.81;5000020;28;50790;-68
2023/07/27 03:38:18;;;;;;;;;0.00;0.00;;;;;21.89;64.30;100527.75;5000209;28;45326;-68
2023/07/27 03:40:43;;;;;;;;;1.00;1.00;;;;;21.86;64.35;100525.28;4999049;28;45449;-68
2023/07/27 03:43:09;;;;;;;;;0.00;0.00;;;;;21.83;64.24;100528.25;4999831;28;45325;-68
2023/07/27 03:45:35;;;;;;;;;1.00;1.00;;;;;22.02;64.57;100552.03;4998828;28;46782;-68
2023/07/27 03:48:00;;;;;;;;;0.00;0.00;;;;;21.86;64.21;100527.13;4998595;28;45850;-69
2023/07/27 03:50:25;;;;;;;;;0.25;0.25;;;;;21.86;64.58;100530.72;4982514;28;45381;-68
2023/07/27 03:52:51;;;;;;;;;0.50;0.50;;;;;21.78;64.26;100534.06;4999953;28;45455;-68
2023/07/27 03:55:18;;;;;;;;;0.00;0.00;;;;;21.94;64.88;100554.53;4999882;28;45418;-69
2023/07/27 03:57:45;;;;;;;;;1.00;1.00;;;;;21.95;64.40;100554.41;4982033;28;45580;-68
2023/07/27 04:00:11;;;;;;;;;0.00;0.00;;;;;21.73;64.93;100521.84;5000079;28;45430;-68
2023/07/27 04:02:37;;;;;;;;;0.00;0.00;;;;;21.85;64.76;100548.00;5006069;28;45523;-68
2023/07/27 04:05:02;;;;;;;;;0.00;0.00;;;;;21.69;64.74;100521.25;4999801;28;45393;-69
2023/07/27 04:07:27;;;;;;;;;0.00;0.00;;;;;21.74;65.31;100519.00;4999180;28;45501;-68
2023/07/27 04:09:53;;;;;;;;;0.25;0.25;;;;;21.88;65.23;100536.03;4998636;28;45421;-68
2023/07/27 04:12:18;;;;;;;;;0.00;0.00;;;;;21.81;65.53;100531.09;4999355;28;45262;-68
2023/07/27 04:14:43;;;;;;;;;0.00;0.00;;;;;21.83;65.68;100544.53;4999682;28;45516;-68
2023/07/27 04:17:12;;;;;;;;;0.25;0.25;;;;;21.87;65.74;100556.03;4999499;28;45439;-68
2023/07/27 04:19:38;;;;;;;;;0.00;0.00;;;;;21.78;65.55;100550.34;4982206;28;45368;-68
2023/07/27 04:22:03;;;;;;;;;0.00;0.00;;;;;21.71;65.80;100535.56;4999414;28;45294;-68
2023/07/27 04:24:29;;;;;;;;;0.00;0.00;;;;;21.78;65.18;100547.63;4998248;28;48434;-68
2023/07/27 04:26:55;;;;;;;;;0.00;0.00;;;;;21.77;65.26;100536.94;4999335;28;45338;-68
2023/07/27 04:29:20;;;;;;;;;0.75;0.75;;;;;21.78;65.44;100541.34;5010797;28;45305;-68
2023/07/27 04:31:45;;;;;;;;;0.00;0.00;;;;;21.80;65.83;100542.97;5001206;28;45518;-68
2023/07/27 04:34:11;;;;;;;;;0.25;0.25;;;;;21.80;65.68;100545.69;4999424;28;45398;-68
2023/07/27 04:36:36;;;;;;;;;0.00;0.00;;;;;21.74;65.85;100524.44;4999148;28;45401;-68
2023/07/27 04:39:02;;;;;;;;;0.00;0.00;;;;;21.63;65.67;100514.47;4989920;28;45429;-68
2023/07/27 04:41:27;;;;;;;;;0.00;0.00;;;;;21.76;65.92;100535.19;4998783;28;45325;-69
2023/07/27 04:43:52;;;;;;;;;0.00;0.00;;;;;21.58;65.83;100508.53;4999202;28;45257;-68
2023/07/27 04:46:18;;;;;;;;;0.00;0.00;;;;;21.70;65.89;100532.97;4997969;28;45508;-68
2023/07/27 04:48:43;;;;;;;;;0.00;0.00;;;;;21.69;66.29;100532.13;4981564;28;45361;-68
2023/07/27 04:51:08;;;;;;;;;0.00;0.00;;;;;21.73;65.88;100536.28;4999148;28;45627;-68
2023/07/27 04:53:34;;;;;;;;;0.00;0.00;;;;;21.63;66.55;100522.63;4999112;28;45495;-68
2023/07/27 04:55:59;;;;;;;;;0.00;0.00;;;;;21.66;66.09;100532.38;4998748;28;45697;-68
2023/07/27 04:58:24;;;;;;;;;1.00;1.00;;;;;21.75;66.19;100544.31;4999419;28;45454;-68
2023/07/27 05:00:54;;;;;;;;;0.75;0.00;;;;;21.83;66.47;100559.00;4981259;28;45694;-68
2023/07/27 05:03:20;;;;;;;;;0.25;0.25;;;;;21.74;66.41;100543.47;5007364;28;45614;-68
2023/07/27 05:05:45;;;;;;;;;1.00;0.00;;;;;21.73;66.45;100528.13;4981295;28;45406;-68
2023/07/27 05:08:10;;;;;;;;;0.00;0.00;;;;;21.75;66.79;100542.47;4999259;28;45443;-68
2023/07/27 05:10:39;;;;;;;;;0.00;0.00;;;;;21.75;66.53;100545.19;4998872;28;45514;-68
2023/07/27 05:13:05;;;;;;;;;0.00;0.00;;;;;21.74;66.77;100535.31;4972065;28;47074;-68
2023/07/27 05:15:31;;;;;;;;;2.00;0.50;;;;;21.64;67.04;100510.75;4998880;28;45323;-68
2023/07/27 05:17:56;;;;;;;;;0.00;0.00;;;;;21.56;66.37;100501.53;4998952;28;45335;-68
2023/07/27 05:20:22;;;;;;;;;0.00;0.00;;;;;21.79;66.69;100551.25;5002192;28;45661;-68
2023/07/27 05:22:47;;;;;;;;;1.00;1.00;;;;;21.59;66.90;100523.00;5002089;28;45964;-68
2023/07/27 05:25:13;;;;;;;;;0.00;0.00;;;;;21.63;67.16;100525.34;5002056;28;47965;-68
2023/07/27 05:27:39;;;;;;;;;0.25;0.25;;;;;21.68;66.92;100530.38;5002287;28;45382;-68
2023/07/27 05:30:05;;;;;;;;;1.00;0.00;;;;;21.66;67.48;100529.66;5001498;28;45396;-68
2023/07/27 05:32:31;;;;;;;;;0.75;0.75;;;;;21.72;67.46;100536.41;5021968;28;45427;-68
2023/07/27 05:34:56;;;;;;;;;0.00;0.00;;;;;21.70;67.00;100533.84;5021059;28;45351;-68
2023/07/27 05:37:21;;;;;;;;;1.00;1.00;;;;;21.67;67.34;100535.94;5010586;28;45329;-68
2023/07/27 05:39:47;;;;;;;;;0.00;0.00;;;;;21.70;67.54;100527.53;5002186;28;45346;-68
2023/07/27 05:42:12;;;;;;;;;1.00;0.00;;;;;21.65;67.45;100525.19;5001532;28;45369;-68
2023/07/27 05:44:38;;;;;;;;;0.00;0.00;;;;;21.59;67.70;100514.84;5001855;28;45494;-68
2023/07/27 05:47:05;;;;;;;;;0.00;0.00;;;;;21.53;67.79;100516.19;5002113;28;45314;-68
2023/07/27 05:49:31;;;;;;;;;0.75;0.75;;;;;21.59;67.47;100517.56;5000547;28;45436;-68
2023/07/27 05:51:56;;;;;;;;;0.25;0.25;;;;;21.68;67.87;100541.25;5000551;28;48190;-69
2023/07/27 05:54:21;;;;;;;;;1.00;1.00;;;;;21.57;67.75;100522.28;5000431;28;45712;-68
2023/07/27 05:56:47;;;;;;;;;0.00;0.00;;;;;21.70;68.10;100550.16;5001827;28;45362;-68
2023/07/27 05:59:12;;;;;;;;;0.50;0.50;;;;;21.52;67.79;100511.78;4984033;28;45518;-68
2023/07/27 06:01:37;;;;;;;;;0.25;0.25;;;;;21.66;67.68;100537.78;5006677;28;46267;-68
2023/07/27 06:04:03;;;;;;;;;1.00;1.00;;;;;21.60;67.57;100516.56;5005031;28;45286;-68
2023/07/27 06:06:28;;;;;;;;;1.00;1.00;;;;;21.69;68.15;100539.41;5001821;28;45381;-68
2023/07/27 06:08:54;;;;;;;;;1.00;0.00;;;;;21.62;67.68;100528.19;4983939;28;45401;-68
2023/07/27 06:11:19;;;;;;;;;0.75;0.75;;;;;21.60;67.98;100513.84;4983631;28;47127;-68
2023/07/27 06:13:45;;;;;;;;;1.00;1.00;;;;;21.46;68.33;100507.66;5000071;28;45340;-68
2023/07/27 06:16:10;;;;;;;;;0.00;0.00;;;;;21.52;67.66;100503.63;5001784;28;45583;-68
2023/07/27 06:18:35;;;;;;;;;0.50;0.50;;;;;21.48;68.62;100499.44;5001337;28;45379;-68
2023/07/27 06:21:01;;;;;;;;;1.00;0.25;;;;;21.53;68.53;100518.06;5001453;28;45411;-68
2023/07/27 06:23:27;;;;;;;;;0.00;0.00;;;;;21.52;68.67;100510.91;5001206;28;45318;-68
2023/07/27 06:25:52;;;;;;;;;0.00;0.00;;;;;21.46;68.23;100506.81;5001465;28;45771;-68
2023/07/27 06:28:18;;;;;;;;;1.75;1.00;;;;;21.47;68.55;100508.59;4986304;28;45459;-68
2023/07/27 06:30:44;;;;;;;;;0.25;0.25;;;;;21.50;68.56;100512.88;5011319;28;45309;-68
2023/07/27 06:33:09;;;;;;;;;1.00;1.00;;;;;21.57;67.97;100525.84;5001048;28;45610;-68
2023/07/27 06:35:35;;;;;;;;;0.00;0.00;;;;;21.65;68.64;100542.38;5001359;28;45472;-68
2023/07/27 06:38:00;;;;;;;;;0.00;0.00;;;;;21.60;68.25;100525.59;5001102;28;45394;-68
2023/07/27 06:40:26;;;;;;;;;0.75;0.75;;;;;21.61;68.41;100542.75;4999771;28;47676;-68
2023/07/27 06:42:51;;;;;;;;;1.00;1.00;;;;;21.58;68.66;100546.56;5000774;28;44932;-68
2023/07/27 06:45:17;;;;;;;;;0.75;0.00;;;;;21.57;68.30;100533.13;5000978;28;45575;-68
2023/07/27 06:47:42;;;;;;;;;0.75;0.75;;;;;21.54;68.28;100539.66;4999594;28;45460;-68
2023/07/27 06:50:08;;;;;;;;;1.00;1.00;;;;;21.65;68.42;100550.53;5000853;28;45492;-68
2023/07/27 06:52:33;;;;;;;;;2.00;1.00;;;;;21.58;68.34;100556.56;4999548;28;45436;-68
2023/07/27 06:54:58;;;;;;;;;1.00;1.00;;;;;21.39;68.74;100508.31;5001145;28;45559;-68
2023/07/27 06:57:27;;;;;;;;;0.50;0.50;;;;;21.47;68.77;100524.88;5000751;28;45255;-68
2023/07/27 06:59:53;;;;;;;;;2.00;1.25;;;;;21.54;68.32;100538.81;5000923;28;45547;-68
2023/07/27 07:02:18;;;;;;;;;1.00;1.00;;;;;21.44;68.50;100523.22;5008815;28;45325;-68
2023/07/27 07:04:45;;;;;;;;;0.00;0.00;;;;;21.65;68.57;100549.63;4983379;28;45345;-68
2023/07/27 07:07:11;;;;;;;;;1.00;1.00;;;;;21.50;68.26;100521.03;5000728;28;45318;-68
2023/07/27 07:09:37;;;;;;;;;0.75;0.75;;;;;21.50;68.65;100524.63;4982956;28;47059;-68
2023/07/27 07:12:04;;;;;;;;;1.00;1.00;;;;;21.43;68.03;100521.53;5000314;28;45389;-68
2023/07/27 07:14:29;;;;;;;;;0.75;0.75;;;;;21.51;68.07;100541.78;4983095;28;45325;-68
2023/07/27 07:16:54;;;;;;;;;1.00;1.00;;;;;21.36;68.41;100514.00;5000413;28;45230;-68
2023/07/27 07:19:20;;;;;;;;;1.00;1.00;;;;;21.51;67.80;100533.63;4999184;28;47498;-68
2023/07/27 07:21:45;;;;;;;;;2.75;1.00;;;;;21.58;68.00;100557.44;5000166;28;45353;-69
2023/07/27 07:24:10;;;;;;;;;1.00;1.00;;;;;21.59;67.10;100548.31;5000679;28;45542;-68
2023/07/27 07:26:36;;;;;;;;;1.75;1.00;;;;;21.53;66.99;100548.78;4982380;28;45607;-68
2023/07/27 07:29:01;;;;;;;;;1.50;1.00;;;;;21.53;66.44;100545.22;5008935;28;46129;-68
2023/07/27 07:31:27;;;;;;;;;1.00;1.00;;;;;21.58;66.45;100549.28;5004705;28;45303;-68
2023/07/27 07:33:52;;;;;;;;;2.00;1.00;;;;;21.60;66.53;100560.00;5000388;28;45546;-68
2023/07/27 07:36:18;;;;;;;;;2.00;1.50;;;;;21.56;65.99;100544.97;4982399;28;45472;-68
2023/07/27 07:38:44;;;;;;;;;2.50;2.50;;;;;21.47;65.35;100527.59;4982431;28;48482;-68
2023/07/27 07:41:09;;;;;;;;;1.00;1.00;;;;;21.62;65.24;100558.91;4997728;28;46262;-68
2023/07/27 07:43:34;;;;;;;;;1.00;1.00;;;;;21.52;65.44;100535.34;5000039;28;45597;-68
2023/07/27 07:46:00;;;;;;;;;2.50;2.50;;;;;21.64;64.86;100556.06;4999950;28;45424;-68
2023/07/27 07:48:25;;;;;;;;;1.00;1.00;;;;;21.70;64.92;100571.00;5000040;28;45364;-68
2023/07/27 07:50:51;;;;;;;;;2.50;2.00;;;;;21.52;65.07;100538.94;4999845;28;45354;-68
2023/07/27 07:53:17;;;;;;;;;2.25;2.00;;;;;21.62;64.23;100555.34;5000191;28;45503;-68
2023/07/27 07:55:42;;;;;;;;;4.50;3.00;;;;;21.57;63.55;100535.84;4999649;28;45468;-69
2023/07/27 07:58:07;;;;;;;;;1.00;1.00;;;;;21.59;63.91;100570.03;4999992;28;45293;-69
2023/07/27 08:00:33;;;;;;;;;4.00;1.75;;;;;21.52;64.25;100551.63;4999865;28;45405;-68
2023/07/27 08:02:58;;;;;;;;;1.00;1.00;;;;;21.61;63.59;100562.59;5007374;28;45441;-69
2023/07/27 08:05:24;;;;;;;;;2.00;1.75;;;;;21.70;63.39;100592.72;4999746;28;45381;-68
2023/07/27 08:07:50;;;;;;;;;2.00;1.50;;;;;21.61;63.09;100564.47;4981596;28;47852;-68
2023/07/27 08:10:15;;;;;;;;;1.00;1.00;;;;;21.43;63.16;100524.25;4999610;28;45459;-68
2023/07/27 08:12:41;;;;;;;;;1.00;1.00;;;;;21.65;64.19;100569.53;4999848;28;45365;-68
2023/07/27 08:15:07;;;;;;;;;1.25;1.00;;;;;21.60;63.53;100554.59;4998157;28;45589;-68
2023/07/27 08:17:32;;;;;;;;;1.25;1.25;;;;;21.58;63.60;100546.56;4999455;28;47267;-68
2023/07/27 08:19:57;;;;;;;;;0.75;0.75;;;;;21.71;63.32;100561.88;4999597;28;45535;-68
2023/07/27 08:22:24;;;;;;;;;0.50;0.50;;;;;21.74;63.84;100562.47;4999795;28;45508;-68
2023/07/27 08:24:50;;;;;;;;;0.75;0.75;;;;;21.63;63.25;100538.94;4981738;28;45479;-68
2023/07/27 08:27:15;;;;;;;;;1.00;1.00;;;;;21.67;63.36;100538.66;4999265;28;46569;-68
2023/07/27 08:29:41;;;;;;;;;1.00;1.00;;;;;21.70;63.52;100538.41;5011507;28;45639;-68
2023/07/27 08:32:06;;;;;;;;;2.00;2.00;;;;;21.74;63.36;100535.31;4999533;28;45562;-68
2023/07/27 08:34:32;;;;;;;;;1.00;1.00;;;;;21.78;63.14;100531.34;4999406;28;45437;-68
2023/07/27 08:36:57;;;;;;;;;2.50;1.00;;;;;21.74;63.41;100529.03;4989056;28;46744;-68
2023/07/27 08:39:23;;;;;;;;;1.75;0.00;;;;;21.91;62.75;100546.63;5019048;28;45394;-68
2023/07/27 08:41:49;;;;;;;;;1.50;1.50;;;;;21.91;63.41;100541.19;5018990;28;45447;-68
2023/07/27 08:44:14;;;;;;;;;1.00;1.00;;;;;21.92;62.85;100532.94;5018853;28;45415;-68
2023/07/27 08:46:41;;;;;;;;;1.00;1.00;;;;;21.88;63.52;100528.72;5001252;28;47337;-68
2023/07/27 08:49:12;;;;;;;;;2.00;1.00;;;;;21.81;63.02;100524.78;5018961;28;45545;-68
2023/07/27 08:51:39;;;;;;;;;1.00;1.00;;;;;21.92;62.73;100527.50;5019186;28;45533;-68
2023/07/27 08:54:05;;;;;;;;;2.25;2.25;;;;;21.99;62.67;100533.28;5018779;28;45462;-68
2023/07/27 08:56:30;;;;;;;;;1.25;1.25;;;;;21.94;63.09;100530.09;5000471;28;46857;-69
2023/07/27 08:58:56;;;;;;;;;1.00;1.00;;;;;22.08;62.83;100548.78;5018918;28;45327;-68
2023/07/27 09:01:21;;;;;;;;;2.00;1.00;;;;;21.86;62.76;100499.97;5018929;28;45322;-68
2023/07/27 09:03:48;;;;;;;;;0.75;0.75;;;;;22.08;62.67;100537.91;5003503;28;45756;-68
2023/07/27 09:06:13;;;;;;;;;1.25;1.25;;;;;22.00;62.56;100508.69;4981341;28;47157;-68
2023/07/27 09:08:38;;;;;;;;;0.00;0.00;;;;;22.09;63.03;100531.50;4998926;28;45476;-68
2023/07/27 09:11:09;;;;;;;;;1.75;1.75;;;;;22.15;62.45;100550.03;4997692;28;45666;-68
2023/07/27 09:13:35;;;;;;;;;1.00;1.00;;;;;22.01;63.11;100531.28;4997572;28;45276;-68
2023/07/27 09:16:02;;;;;;;;;1.25;1.00;;;;;22.00;62.27;100524.13;4998979;28;45430;-68
2023/07/27 09:18:34;;;;;;;;;2.50;1.50;;;;;22.12;61.91;100539.41;4998719;28;45318;-68
2023/07/27 09:21:06;;;;;;;;;2.00;1.00;;;;;22.23;61.70;100557.50;4998939;28;45462;-68
2023/07/27 09:23:31;;;;;;;;;1.00;0.00;;;;;22.21;61.95;100548.63;4980950;28;45541;-68
2023/07/27 09:25:57;;;;;;;;;0.75;0.75;;;;;22.15;61.79;100533.72;4996901;28;47722;-68
2023/07/27 09:28:24;;;;;;;;;1.75;1.75;;;;;22.23;62.09;100543.06;5001815;28;45399;-69
2023/07/27 09:30:50;;;;;;;;;2.25;1.00;;;;;22.15;61.93;100516.53;5008396;28;45334;-68
2023/07/27 09:33:20;;;;;;;;;1.00;1.00;;;;;22.24;61.93;100531.22;4998519;28;45532;-68
2023/07/27 09:35:48;;;;;;;;;0.00;0.00;;;;;22.23;61.77;100535.75;4997489;28;48205;-68
2023/07/27 09:38:14;;;;;;;;;2.00;0.00;;;;;22.28;61.23;100529.94;4998461;28;45395;-68
2023/07/27 09:40:39;;;;;;;;;2.25;1.00;;;;;22.48;61.30;100553.59;4998551;28;45278;-68
2023/07/27 09:43:06;;;;;;;;;1.00;1.00;;;;;22.45;61.27;100553.84;4998399;28;45298;-68
2023/07/27 09:45:37;;;;;;;;;1.00;1.00;;;;;22.34;60.53;100529.47;4998193;28;46211;-69
2023/07/27 09:48:03;;;;;;;;;2.00;2.00;;;;;22.36;60.81;100522.88;4998326;28;45487;-68
2023/07/27 09:50:30;;;;;;;;;2.00;2.00;;;;;22.36;60.66;100517.44;4998562;28;45377;-69
2023/07/27 09:52:57;;;;;;;;;1.50;1.00;;;;;22.47;60.98;100529.25;4998493;28;45421;-68
2023/07/27 09:55:25;;;;;;;;;1.00;1.00;;;;;22.57;60.66;100528.34;4998347;28;45642;-68
2023/07/27 09:57:51;;;;;;;;;1.00;1.00;;;;;22.55;60.36;100535.78;4998155;28;45564;-68
2023/07/27 10:00:19;;;;;;;;;2.00;2.00;;;;;22.45;60.98;100509.50;4998484;28;45335;-68
2023/07/27 10:02:44;;;;;;;;;1.50;1.00;;;;;22.69;60.69;100553.63;5005557;28;45480;-68
2023/07/27 10:05:09;;;;;;;;;1.50;0.00;;;;;22.52;60.48;100524.28;4998558;28;47339;-68
2023/07/27 10:07:35;;;;;;;;;1.00;1.00;;;;;22.68;60.61;100546.44;5001883;28;45372;-68
2023/07/27 10:10:28;;;;;;;;;1.00;1.00;;;;;22.75;60.73;100561.25;5001714;28;45326;-68
2023/07/27 10:12:58;;;;;;;;;1.25;1.25;;;;;22.77;60.70;100547.53;4983488;28;45715;-68
2023/07/27 10:15:28;;;;;;;;;1.00;1.00;;;;;22.80;60.21;100540.94;4983751;28;47118;-69
2023/07/27 10:17:59;;;;;;;;;2.00;2.00;;;;;22.76;60.03;100524.88;5001481;28;45471;-69
2023/07/27 10:20:26;;;;;;;;;2.00;2.00;;;;;22.74;60.37;100524.16;5000208;28;45707;-68
2023/07/27 10:23:10;;;;;;;;;1.00;1.00;;;;;22.85;59.89;100539.53;5001396;28;45448;-68
2023/07/27 10:26:07;;;;;;;;;3.00;3.00;;;;;22.87;60.18;100537.56;5001389;28;46203;-68
2023/07/27 10:28:37;;;;;;;;;1.50;1.50;;;;;22.79;59.81;100514.72;4985725;28;45465;-68
2023/07/27 10:31:19;;;;;;;;;3.00;2.00;;;;;22.97;59.78;100547.63;5016613;28;45571;-68
2023/07/27 10:34:07;;;;;;;;;1.25;1.00;;;;;22.84;59.53;100517.91;5001263;28;45556;-68
2023/07/27 10:36:57;;;;;;;;;3.25;2.00;;;;;23.01;59.10;100549.94;4986872;28;46408;-68
2023/07/27 10:39:24;;;;;;;;;1.00;1.00;;;;;23.03;59.29;100534.34;5021034;28;45344;-68
2023/07/27 10:42:08;;;;;;;;;1.00;1.00;;;;;22.89;59.25;100521.94;5020769;28;45468;-68
2023/07/27 10:44:46;;;;;;;;;1.25;1.25;;;;;23.04;59.36;100538.78;5002297;28;46449;-68
2023/07/27 10:47:32;;;;;;;;;2.25;1.00;;;;;22.98;59.19;100525.72;5020657;28;46001;-68
2023/07/27 10:49:59;;;;;;;;;2.25;2.00;;;;;22.91;59.47;100517.22;5019609;28;46313;-68
2023/07/27 10:52:27;;;;;;;;;0.75;0.75;;;;;23.09;59.47;100546.59;5003018;28;45472;-68
2023/07/27 10:54:53;;;;;;;;;2.75;2.50;;;;;23.10;59.31;100546.47;5002594;28;45650;-68
2023/07/27 10:57:20;;;;;;;;;2.75;1.00;;;;;23.11;59.50;100539.16;5002475;28;48410;-68
2023/07/27 10:59:48;;;;;;;;;1.00;1.00;;;;;23.11;59.33;100540.00;5002870;28;45546;-68
2023/07/27 11:02:21;;;;;;;;;2.00;2.00;;;;;23.12;59.86;100544.47;5018986;28;45352;-68
2023/07/27 11:04:49;;;;;;;;;1.00;1.00;;;;;23.07;59.87;100540.41;5001070;28;45322;-68
2023/07/27 11:07:35;;;;;;;;;1.25;1.25;;;;;23.13;59.41;100548.03;4999274;28;48066;-68
2023/07/27 11:10:09;;;;;;;;;2.00;1.25;;;;;23.00;59.58;100518.25;5000841;28;45418;-68
2023/07/27 11:12:49;;;;;;;;;2.00;2.00;;;;;22.92;59.63;100502.63;5000364;28;45637;-68
2023/07/27 11:15:26;;;;;;;;;2.00;2.00;;;;;23.02;61.18;100515.41;4999040;28;45571;-68
2023/07/27 11:17:53;;;;;;;;;2.00;2.00;;;;;23.10;60.17;100534.69;4982015;28;47678;-68
2023/07/27 11:20:21;;;;;;;;;3.00;2.00;;;;;23.18;61.09;100548.47;4982780;28;45476;-68
2023/07/27 11:22:48;;;;;;;;;4.00;2.00;;;;;23.12;61.47;100539.00;5000528;28;45554;-68
2023/07/27 11:25:13;;;;;;;;;2.25;2.25;;;;;23.05;61.70;100526.03;4982747;28;45554;-68